Flight Track Log - Related Links

Times and Time Zones

All times are in EDT time to prevent confusion due to time zone crossing. See the GLA61C flight status page for this flight to view local times or setup timezone preferences in your user account.

Time Position Orientation Groundspeed Altitude Reporting Facility
EDT Latitude Longitude Course Direction KTS MPH feet Rate Location/Type
Wed 08:01:03 AM 37.3436 -108.5986 48° Northeast 143 165 8,000  Level Denver Center
Wed 08:02:04 AM 37.3828 -108.5625 36° Northeast 154 177 10,100 1,686 Climbing Denver Center
Wed 08:03:00 AM 37.5519 -108.2738 46° Northeast  Level FlightAware Approximate
Wed 08:03:04 AM 37.4189 -108.5236 41° Northeast 164 189 11,400  Level Denver Center
Wed 08:04:00 AM 37.6031 -108.2060 48° Northeast  Level FlightAware Approximate
Wed 08:04:04 AM 37.4553 -108.4736 47° Northeast 182 209 12,700  Level Denver Center
Wed 08:05:00 AM 37.6533 -108.1368 48° Northeast  Level FlightAware Approximate
Wed 08:05:05 AM 37.4944 -108.4117 51° Northeast 209 241 14,000  Level Denver Center
Wed 08:06:00 AM 37.7034 -108.0675 48° Northeast  Level FlightAware Approximate
Wed 08:06:05 AM 37.5444 -108.3417 48° Northeast 233 268 15,400  Level Denver Center
Wed 08:07:05 AM 37.5864 -108.2789 50° Northeast 242 278 16,500 1,041 Climbing Denver Center
Wed 08:08:06 AM 37.6308 -108.2167 48° Northeast 247 284 17,500 1,041 Climbing Denver Center
Wed 08:09:06 AM 37.6850 -108.1422 47° Northeast 254 292 18,600 950 Climbing Denver Center
Wed 08:10:06 AM 37.7311 -108.0744 49° Northeast 262 302 19,400 645 Climbing Denver Center
Wed 08:11:07 AM 37.7789 -108.0036 50° Northeast 272 313 19,900 496 Climbing Denver Center
Wed 08:12:07 AM 37.8267 -107.9286 51° Northeast 283 326 20,400 694 Climbing Denver Center
Wed 08:13:08 AM 37.8794 -107.8339 55° Northeast 291 335 21,300 694 Climbing Denver Center
Wed 08:14:08 AM 37.9300 -107.7556 51° Northeast 297 342 21,800 446 Climbing Denver Center
Wed 08:15:09 AM 37.9828 -107.6817 48° Northeast 297 342 22,200 496 Climbing Denver Center
Wed 08:16:09 AM 38.0486 -107.5944 46° Northeast 305 351 22,800 496 Climbing Denver Center
Wed 08:17:10 AM 38.1014 -107.5275 45° Northeast 304 350 23,200 446 Climbing Denver Center
Wed 08:18:10 AM 38.1658 -107.4381 47° Northeast 307 353 23,700 545 Climbing Denver Center
Wed 08:19:11 AM 38.2169 -107.3589 51° Northeast 305 351 24,300 595 Climbing Denver Center
Wed 08:20:11 AM 38.2689 -107.2861 48° Northeast 294 338 24,900 347 Climbing Denver Center
Wed 08:21:12 AM 38.3353 -107.2003 45° Northeast 304 350 25,000 50 Climbing Denver Center
Wed 08:22:12 AM 38.3969 -107.1153 47° Northeast 322 371 25,000 50 Level Denver Center
Wed 08:23:13 AM 38.4558 -107.0244 50° Northeast 332 382 25,100  Climbing Denver Center
Wed 08:24:13 AM 38.4947 -106.9133 66° East 343 395 25,000 -50 Descending Denver Center
Wed 08:25:14 AM 38.5317 -106.8039 67° East 338 389 25,000  Level Denver Center
Wed 08:26:15 AM 38.5683 -106.6956 67° East 334 384 25,000  Level Denver Center
Wed 08:27:15 AM 38.6078 -106.5864 65° Northeast 337 388 25,000  Level Denver Center
Wed 08:28:16 AM 38.6436 -106.4739 68° East 342 394 25,000  Level Denver Center
Wed 08:29:16 AM 38.6744 -106.3619 71° East 335 386 25,000  Level Denver Center
Wed 08:30:17 AM 38.7181 -106.2553 62° Northeast 336 387 25,000  Level Denver Center
Wed 08:31:18 AM 38.7692 -106.1458 59° Northeast 333 383 25,000  Level Denver Center
Wed 08:32:19 AM 38.8181 -106.0497 57° Northeast 334 384 25,000  Level Denver Center
Wed 08:33:19 AM 38.8744 -105.9586 51° Northeast 339 390 25,000 -397 Level Denver Center
Wed 08:34:20 AM 38.9375 -105.8536 52° Northeast 339 390 24,200 -885 Descending Denver Center
Wed 08:35:21 AM 38.9897 -105.7575 55° Northeast 334 384 23,200 -1,140 Descending Denver Center
Wed 08:36:21 AM 39.0417 -105.6672 53° Northeast 328 377 21,900 -1,587 Descending Denver Center
Wed 08:37:22 AM 39.1072 -105.5681 50° Northeast 326 375 20,000 -1,623 Descending Denver Center
Wed 08:38:23 AM 39.1650 -105.4839 48° Northeast 324 373 18,600 -1,820 Descending Denver Center
Wed 08:39:24 AM 39.2275 -105.4006 46° Northeast 313 360 16,300 -1,721 Descending Denver Center
Wed 08:40:25 AM 39.2728 -105.3058 58° Northeast 314 361 15,100 -1,041 Descending Denver Center
Wed 08:41:25 AM 39.3042 -105.1978 69° East 301 346 14,200 -645 Descending Denver Center
Wed 08:42:26 AM 39.3422 -105.1022 63° Northeast 302 348 13,800 -639 Descending Denver Center
Wed 08:43:27 AM 39.3758 -105.0117 64° Northeast 281 323 12,900 -393 Descending Denver Center
Wed 08:44:28 AM 39.4033 -104.9217 68° East 269 310 13,000  Climbing Denver Center
Wed 08:45:29 AM 39.4286 -104.8331 70° East 263 303 12,900 -492 Descending Denver Center
Wed 08:46:30 AM 39.4386 -104.7361 82° East 249 287 12,000 -1,082 Descending Denver Center
Wed 08:47:31 AM 39.4886 -104.6947 33° Northeast 223 257 10,700 -984 Descending Denver Center
Wed 08:48:32 AM 39.5478 -104.6906 North 214 246 10,000 -344 Descending Denver Center
Wed 08:49:33 AM 39.6056 -104.6919 359° North 209 241 10,000 -148 Level Denver Center
Wed 08:50:34 AM 39.6653 -104.6897 North 214 246 9,700 -885 Descending Denver Center
Wed 08:51:35 AM 39.7289 -104.6892 360° North 212 244 8,200 -1,328 Descending Denver Center
Wed 08:52:36 AM 39.7800 -104.6883 North 178 205 7,000 -984 Descending Denver Center
Wed 08:53:37 AM 39.8219 -104.6881 360° North 151 174 6,200 -787 Descending Denver Center
Wed 08:54:38 AM 39.8633 -104.6875 North 142 163 5,400 -787 Descending Denver Center
Wed 08:56:00 AM 39.8617 -104.6732 346° North  Level Estimated
Wed 09:03:00 AM 39.8617 -104.6732 346° North  Level Estimated
Wed 09:04:00 AM 39.8617 -104.6732 346° North  Level Estimated
Wed 09:05:00 AM 39.8617 -104.6732 346° North  Level Estimated

Login

Don't have an account? Register now (free) for customized features, flight alerts, and more!